sensor_id;sensor_type;location;lat;lon;timestamp;P1;durP1;ratioP1;P2;durP2;ratioP2
55718;SDS011;41623;46.104;19.656;2023-02-28T00:01:18;8.50;;;3.45;;
55718;SDS011;41623;46.104;19.656;2023-02-28T00:03:45;3.50;;;2.10;;
55718;SDS011;41623;46.104;19.656;2023-02-28T00:06:11;4.18;;;2.22;;
55718;SDS011;41623;46.104;19.656;2023-02-28T00:08:37;5.05;;;2.65;;
55718;SDS011;41623;46.104;19.656;2023-02-28T00:11:05;4.07;;;2.00;;
55718;SDS011;41623;46.104;19.656;2023-02-28T00:13:31;4.60;;;2.80;;
55718;SDS011;41623;46.104;19.656;2023-02-28T00:16:04;3.75;;;2.53;;
55718;SDS011;41623;46.104;19.656;2023-02-28T00:18:31;2.58;;;2.17;;
55718;SDS011;41623;46.104;19.656;2023-02-28T00:20:57;7.25;;;2.90;;
55718;SDS011;41623;46.104;19.656;2023-02-28T00:23:24;12.85;;;3.13;;
55718;SDS011;41623;46.104;19.656;2023-02-28T00:25:50;3.55;;;2.30;;
55718;SDS011;41623;46.104;19.656;2023-02-28T00:28:16;4.95;;;2.88;;
55718;SDS011;41623;46.104;19.656;2023-02-28T00:30:43;8.45;;;2.63;;
55718;SDS011;41623;46.104;19.656;2023-02-28T00:33:09;5.78;;;3.05;;
55718;SDS011;41623;46.104;19.656;2023-02-28T00:35:35;5.53;;;2.80;;
55718;SDS011;41623;46.104;19.656;2023-02-28T00:38:01;5.45;;;2.60;;
55718;SDS011;41623;46.104;19.656;2023-02-28T00:40:28;5.38;;;2.25;;
55718;SDS011;41623;46.104;19.656;2023-02-28T00:42:54;5.43;;;2.65;;
55718;SDS011;41623;46.104;19.656;2023-02-28T00:45:20;6.35;;;2.47;;
55718;SDS011;41623;46.104;19.656;2023-02-28T00:47:46;5.53;;;3.03;;
55718;SDS011;41623;46.104;19.656;2023-02-28T00:50:16;8.32;;;2.88;;
55718;SDS011;41623;46.104;19.656;2023-02-28T00:52:42;5.45;;;2.83;;
55718;SDS011;41623;46.104;19.656;2023-02-28T00:55:09;7.43;;;2.47;;
55718;SDS011;41623;46.104;19.656;2023-02-28T00:57:35;8.95;;;2.78;;
55718;SDS011;41623;46.104;19.656;2023-02-28T01:00:01;2.85;;;2.25;;
55718;SDS011;41623;46.104;19.656;2023-02-28T01:02:28;4.43;;;2.65;;
55718;SDS011;41623;46.104;19.656;2023-02-28T01:04:54;4.78;;;2.88;;
55718;SDS011;41623;46.104;19.656;2023-02-28T01:07:21;6.38;;;3.42;;
55718;SDS011;41623;46.104;19.656;2023-02-28T01:09:47;2.63;;;1.92;;
55718;SDS011;41623;46.104;19.656;2023-02-28T01:12:13;4.63;;;2.20;;
55718;SDS011;41623;46.104;19.656;2023-02-28T01:14:39;4.32;;;2.78;;
55718;SDS011;41623;46.104;19.656;2023-02-28T01:17:06;4.63;;;2.95;;
55718;SDS011;41623;46.104;19.656;2023-02-28T01:19:32;3.35;;;2.00;;
55718;SDS011;41623;46.104;19.656;2023-02-28T01:22:00;5.03;;;2.53;;
55718;SDS011;41623;46.104;19.656;2023-02-28T01:24:26;3.53;;;1.85;;
55718;SDS011;41623;46.104;19.656;2023-02-28T01:26:52;5.25;;;3.08;;
55718;SDS011;41623;46.104;19.656;2023-02-28T01:29:18;5.00;;;2.63;;
55718;SDS011;41623;46.104;19.656;2023-02-28T01:31:44;8.30;;;2.70;;
55718;SDS011;41623;46.104;19.656;2023-02-28T01:34:10;5.03;;;2.78;;
55718;SDS011;41623;46.104;19.656;2023-02-28T01:36:37;3.15;;;2.40;;
55718;SDS011;41623;46.104;19.656;2023-02-28T01:39:03;4.53;;;2.30;;
55718;SDS011;41623;46.104;19.656;2023-02-28T01:41:30;3.05;;;2.22;;
55718;SDS011;41623;46.104;19.656;2023-02-28T01:44:53;3.78;;;2.35;;
55718;SDS011;41623;46.104;19.656;2023-02-28T01:46:43;4.63;;;2.45;;
55718;SDS011;41623;46.104;19.656;2023-02-28T01:49:11;2.88;;;1.88;;
55718;SDS011;41623;46.104;19.656;2023-02-28T01:51:42;4.22;;;2.33;;
55718;SDS011;41623;46.104;19.656;2023-02-28T01:54:20;2.78;;;2.38;;
55718;SDS011;41623;46.104;19.656;2023-02-28T01:56:50;2.75;;;2.15;;
55718;SDS011;41623;46.104;19.656;2023-02-28T01:59:21;6.43;;;3.17;;
55718;SDS011;41623;46.104;19.656;2023-02-28T02:01:48;5.20;;;2.13;;
55718;SDS011;41623;46.104;19.656;2023-02-28T02:04:14;3.42;;;2.53;;
55718;SDS011;41623;46.104;19.656;2023-02-28T02:06:42;4.85;;;2.28;;
55718;SDS011;41623;46.104;19.656;2023-02-28T02:09:08;2.90;;;1.60;;
55718;SDS011;41623;46.104;19.656;2023-02-28T02:11:34;2.33;;;2.13;;
55718;SDS011;41623;46.104;19.656;2023-02-28T02:19:06;2.88;;;2.00;;
55718;SDS011;41623;46.104;19.656;2023-02-28T02:24:33;6.80;;;2.40;;
55718;SDS011;41623;46.104;19.656;2023-02-28T02:37:50;5.32;;;2.97;;
55718;SDS011;41623;46.104;19.656;2023-02-28T02:40:18;3.90;;;2.15;;
55718;SDS011;41623;46.104;19.656;2023-02-28T02:42:47;2.72;;;2.25;;
55718;SDS011;41623;46.104;19.656;2023-02-28T02:45:30;6.13;;;2.45;;
55718;SDS011;41623;46.104;19.656;2023-02-28T02:48:01;5.75;;;2.85;;
55718;SDS011;41623;46.104;19.656;2023-02-28T02:50:30;9.50;;;2.63;;
55718;SDS011;41623;46.104;19.656;2023-02-28T02:52:57;2.80;;;1.90;;
55718;SDS011;41623;46.104;19.656;2023-02-28T02:55:24;2.53;;;1.85;;
55718;SDS011;41623;46.104;19.656;2023-02-28T02:57:55;1.95;;;1.65;;
55718;SDS011;41623;46.104;19.656;2023-02-28T03:00:30;1.85;;;1.73;;
55718;SDS011;41623;46.104;19.656;2023-02-28T03:02:57;5.82;;;2.30;;
55718;SDS011;41623;46.104;19.656;2023-02-28T03:05:24;3.13;;;2.03;;
55718;SDS011;41623;46.104;19.656;2023-02-28T03:07:51;2.22;;;1.83;;
55718;SDS011;41623;46.104;19.656;2023-02-28T03:10:31;3.17;;;2.22;;
55718;SDS011;41623;46.104;19.656;2023-02-28T03:15:47;3.15;;;1.67;;
55718;SDS011;41623;46.104;19.656;2023-02-28T03:18:24;6.90;;;2.28;;
55718;SDS011;41623;46.104;19.656;2023-02-28T03:23:33;2.55;;;2.10;;
55718;SDS011;41623;46.104;19.656;2023-02-28T03:26:04;2.97;;;2.37;;
55718;SDS011;41623;46.104;19.656;2023-02-28T03:31:03;4.25;;;2.63;;
55718;SDS011;41623;46.104;19.656;2023-02-28T03:33:38;5.07;;;2.88;;
55718;SDS011;41623;46.104;19.656;2023-02-28T03:36:09;3.85;;;1.98;;
55718;SDS011;41623;46.104;19.656;2023-02-28T03:38:41;3.88;;;2.45;;
55718;SDS011;41623;46.104;19.656;2023-02-28T03:41:20;2.67;;;2.13;;
55718;SDS011;41623;46.104;19.656;2023-02-28T03:43:57;4.15;;;2.65;;
55718;SDS011;41623;46.104;19.656;2023-02-28T03:46:25;1.98;;;1.77;;
55718;SDS011;41623;46.104;19.656;2023-02-28T03:48:57;5.20;;;2.42;;
55718;SDS011;41623;46.104;19.656;2023-02-28T03:51:27;3.83;;;1.92;;
55718;SDS011;41623;46.104;19.656;2023-02-28T03:53:56;5.50;;;2.63;;
55718;SDS011;41623;46.104;19.656;2023-02-28T03:59:01;4.72;;;2.30;;
55718;SDS011;41623;46.104;19.656;2023-02-28T04:01:38;1.83;;;1.63;;
55718;SDS011;41623;46.104;19.656;2023-02-28T04:04:06;3.50;;;2.03;;
55718;SDS011;41623;46.104;19.656;2023-02-28T04:06:32;3.88;;;2.00;;
55718;SDS011;41623;46.104;19.656;2023-02-28T04:08:59;5.93;;;2.70;;
55718;SDS011;41623;46.104;19.656;2023-02-28T04:13:57;7.72;;;4.07;;
55718;SDS011;41623;46.104;19.656;2023-02-28T04:16:23;3.03;;;1.98;;
55718;SDS011;41623;46.104;19.656;2023-02-28T04:18:49;3.08;;;2.30;;
55718;SDS011;41623;46.104;19.656;2023-02-28T04:21:15;3.10;;;2.72;;
55718;SDS011;41623;46.104;19.656;2023-02-28T04:23:45;4.03;;;2.55;;
55718;SDS011;41623;46.104;19.656;2023-02-28T04:26:11;2.90;;;2.22;;
55718;SDS011;41623;46.104;19.656;2023-02-28T04:28:37;5.53;;;3.00;;
55718;SDS011;41623;46.104;19.656;2023-02-28T04:31:04;6.00;;;2.55;;
55718;SDS011;41623;46.104;19.656;2023-02-28T04:33:31;4.65;;;2.33;;
55718;SDS011;41623;46.104;19.656;2023-02-28T04:36:00;3.75;;;2.85;;
55718;SDS011;41623;46.104;19.656;2023-02-28T04:38:27;2.60;;;1.73;;
55718;SDS011;41623;46.104;19.656;2023-02-28T04:40:53;2.45;;;1.88;;
55718;SDS011;41623;46.104;19.656;2023-02-28T04:43:19;5.00;;;2.72;;
55718;SDS011;41623;46.104;19.656;2023-02-28T04:45:45;3.45;;;2.13;;
55718;SDS011;41623;46.104;19.656;2023-02-28T04:48:11;3.78;;;2.35;;
55718;SDS011;41623;46.104;19.656;2023-02-28T04:50:37;4.00;;;2.42;;
55718;SDS011;41623;46.104;19.656;2023-02-28T04:53:03;3.33;;;2.25;;
55718;SDS011;41623;46.104;19.656;2023-02-28T04:55:29;4.90;;;2.67;;
55718;SDS011;41623;46.104;19.656;2023-02-28T04:57:55;5.82;;;2.88;;
55718;SDS011;41623;46.104;19.656;2023-02-28T05:00:21;3.42;;;2.38;;
55718;SDS011;41623;46.104;19.656;2023-02-28T05:02:47;6.72;;;2.75;;
55718;SDS011;41623;46.104;19.656;2023-02-28T05:05:13;10.70;;;2.80;;
55718;SDS011;41623;46.104;19.656;2023-02-28T05:07:43;5.30;;;3.25;;
55718;SDS011;41623;46.104;19.656;2023-02-28T05:10:09;3.70;;;2.38;;
55718;SDS011;41623;46.104;19.656;2023-02-28T05:12:35;4.18;;;2.75;;
55718;SDS011;41623;46.104;19.656;2023-02-28T05:15:02;3.70;;;2.78;;
55718;SDS011;41623;46.104;19.656;2023-02-28T05:17:29;2.53;;;2.28;;
55718;SDS011;41623;46.104;19.656;2023-02-28T05:19:55;4.15;;;2.50;;
55718;SDS011;41623;46.104;19.656;2023-02-28T05:22:22;5.07;;;3.45;;
55718;SDS011;41623;46.104;19.656;2023-02-28T05:24:48;9.25;;;2.65;;
55718;SDS011;41623;46.104;19.656;2023-02-28T05:27:14;2.95;;;2.00;;
55718;SDS011;41623;46.104;19.656;2023-02-28T05:29:40;5.55;;;2.47;;
55718;SDS011;41623;46.104;19.656;2023-02-28T05:32:10;3.30;;;3.00;;
55718;SDS011;41623;46.104;19.656;2023-02-28T05:34:39;4.35;;;3.38;;
55718;SDS011;41623;46.104;19.656;2023-02-28T05:37:05;5.70;;;3.13;;
55718;SDS011;41623;46.104;19.656;2023-02-28T05:39:32;8.85;;;3.63;;
55718;SDS011;41623;46.104;19.656;2023-02-28T05:41:58;4.78;;;3.58;;
55718;SDS011;41623;46.104;19.656;2023-02-28T05:44:24;2.92;;;2.20;;
55718;SDS011;41623;46.104;19.656;2023-02-28T05:46:50;9.52;;;3.25;;
55718;SDS011;41623;46.104;19.656;2023-02-28T05:49:16;7.53;;;3.10;;
55718;SDS011;41623;46.104;19.656;2023-02-28T05:51:42;6.63;;;3.53;;
55718;SDS011;41623;46.104;19.656;2023-02-28T05:54:08;5.18;;;3.17;;
55718;SDS011;41623;46.104;19.656;2023-02-28T05:56:34;7.65;;;4.03;;
55718;SDS011;41623;46.104;19.656;2023-02-28T05:59:02;6.80;;;3.00;;
55718;SDS011;41623;46.104;19.656;2023-02-28T06:04:01;3.88;;;2.38;;
55718;SDS011;41623;46.104;19.656;2023-02-28T06:06:27;4.43;;;2.65;;
55718;SDS011;41623;46.104;19.656;2023-02-28T06:08:54;6.35;;;3.30;;
55718;SDS011;41623;46.104;19.656;2023-02-28T06:11:20;5.18;;;2.78;;
55718;SDS011;41623;46.104;19.656;2023-02-28T06:13:46;8.00;;;3.70;;
55718;SDS011;41623;46.104;19.656;2023-02-28T06:16:13;6.82;;;3.42;;
55718;SDS011;41623;46.104;19.656;2023-02-28T06:18:39;5.80;;;3.22;;
55718;SDS011;41623;46.104;19.656;2023-02-28T06:21:05;10.13;;;4.53;;
55718;SDS011;41623;46.104;19.656;2023-02-28T06:23:31;9.75;;;4.57;;
55718;SDS011;41623;46.104;19.656;2023-02-28T06:25:57;9.02;;;4.15;;
55718;SDS011;41623;46.104;19.656;2023-02-28T06:28:24;7.32;;;4.47;;
55718;SDS011;41623;46.104;19.656;2023-02-28T06:30:51;6.22;;;2.88;;
55718;SDS011;41623;46.104;19.656;2023-02-28T06:33:17;7.95;;;4.25;;
55718;SDS011;41623;46.104;19.656;2023-02-28T06:35:44;10.35;;;3.60;;
55718;SDS011;41623;46.104;19.656;2023-02-28T06:38:10;5.63;;;3.47;;
55718;SDS011;41623;46.104;19.656;2023-02-28T06:40:36;5.70;;;3.75;;
55718;SDS011;41623;46.104;19.656;2023-02-28T06:43:02;7.13;;;3.13;;
55718;SDS011;41623;46.104;19.656;2023-02-28T06:45:28;6.93;;;3.53;;
55718;SDS011;41623;46.104;19.656;2023-02-28T06:47:54;9.48;;;3.92;;
55718;SDS011;41623;46.104;19.656;2023-02-28T06:50:20;5.32;;;3.90;;
55718;SDS011;41623;46.104;19.656;2023-02-28T06:52:47;7.40;;;3.63;;
55718;SDS011;41623;46.104;19.656;2023-02-28T06:55:13;10.63;;;5.13;;
55718;SDS011;41623;46.104;19.656;2023-02-28T06:57:39;12.07;;;4.28;;
55718;SDS011;41623;46.104;19.656;2023-02-28T07:00:06;11.85;;;5.75;;
55718;SDS011;41623;46.104;19.656;2023-02-28T07:02:33;4.30;;;3.50;;
55718;SDS011;41623;46.104;19.656;2023-02-28T07:04:59;9.77;;;4.07;;
55718;SDS011;41623;46.104;19.656;2023-02-28T07:07:25;7.68;;;4.10;;
55718;SDS011;41623;46.104;19.656;2023-02-28T07:09:51;5.90;;;3.30;;
55718;SDS011;41623;46.104;19.656;2023-02-28T07:12:17;8.73;;;3.13;;
55718;SDS011;41623;46.104;19.656;2023-02-28T07:14:43;7.00;;;3.25;;
55718;SDS011;41623;46.104;19.656;2023-02-28T07:17:10;9.20;;;4.10;;
55718;SDS011;41623;46.104;19.656;2023-02-28T07:19:37;7.40;;;4.13;;
55718;SDS011;41623;46.104;19.656;2023-02-28T07:22:04;47.50;;;17.05;;
55718;SDS011;41623;46.104;19.656;2023-02-28T07:24:30;16.88;;;11.95;;
55718;SDS011;41623;46.104;19.656;2023-02-28T07:26:56;38.65;;;18.38;;
55718;SDS011;41623;46.104;19.656;2023-02-28T07:29:22;36.45;;;20.75;;
55718;SDS011;41623;46.104;19.656;2023-02-28T07:31:48;11.57;;;8.15;;
55718;SDS011;41623;46.104;19.656;2023-02-28T07:34:17;13.23;;;4.75;;
55718;SDS011;41623;46.104;19.656;2023-02-28T07:36:44;9.32;;;3.78;;
55718;SDS011;41623;46.104;19.656;2023-02-28T07:39:10;6.82;;;4.53;;
55718;SDS011;41623;46.104;19.656;2023-02-28T07:41:36;5.95;;;4.15;;
55718;SDS011;41623;46.104;19.656;2023-02-28T07:44:08;5.05;;;3.25;;
55718;SDS011;41623;46.104;19.656;2023-02-28T07:46:34;14.82;;;5.47;;
55718;SDS011;41623;46.104;19.656;2023-02-28T07:49:01;5.85;;;3.53;;
55718;SDS011;41623;46.104;19.656;2023-02-28T07:51:28;9.15;;;4.22;;
55718;SDS011;41623;46.104;19.656;2023-02-28T07:53:54;12.02;;;6.13;;
55718;SDS011;41623;46.104;19.656;2023-02-28T07:56:20;6.28;;;3.67;;
55718;SDS011;41623;46.104;19.656;2023-02-28T07:58:46;7.65;;;3.65;;
55718;SDS011;41623;46.104;19.656;2023-02-28T08:01:12;10.35;;;4.20;;
55718;SDS011;41623;46.104;19.656;2023-02-28T08:03:39;7.85;;;4.43;;
55718;SDS011;41623;46.104;19.656;2023-02-28T08:06:07;33.28;;;14.65;;
55718;SDS011;41623;46.104;19.656;2023-02-28T08:08:33;27.75;;;14.88;;
55718;SDS011;41623;46.104;19.656;2023-02-28T08:11:00;10.35;;;5.60;;
55718;SDS011;41623;46.104;19.656;2023-02-28T08:13:27;10.82;;;3.83;;
55718;SDS011;41623;46.104;19.656;2023-02-28T08:15:54;6.82;;;3.78;;
55718;SDS011;41623;46.104;19.656;2023-02-28T08:18:20;3.30;;;2.65;;
55718;SDS011;41623;46.104;19.656;2023-02-28T08:20:47;6.18;;;4.07;;
55718;SDS011;41623;46.104;19.656;2023-02-28T08:23:13;7.97;;;3.53;;
55718;SDS011;41623;46.104;19.656;2023-02-28T08:25:39;5.38;;;3.85;;
55718;SDS011;41623;46.104;19.656;2023-02-28T08:28:05;13.15;;;4.32;;
55718;SDS011;41623;46.104;19.656;2023-02-28T08:30:31;6.28;;;3.15;;
55718;SDS011;41623;46.104;19.656;2023-02-28T08:32:57;9.50;;;3.47;;
55718;SDS011;41623;46.104;19.656;2023-02-28T08:35:23;19.50;;;5.45;;
55718;SDS011;41623;46.104;19.656;2023-02-28T08:37:49;16.85;;;6.13;;
55718;SDS011;41623;46.104;19.656;2023-02-28T08:40:15;10.18;;;5.60;;
55718;SDS011;41623;46.104;19.656;2023-02-28T08:42:46;13.13;;;8.82;;
55718;SDS011;41623;46.104;19.656;2023-02-28T08:45:13;6.00;;;4.32;;
55718;SDS011;41623;46.104;19.656;2023-02-28T08:47:39;8.15;;;4.18;;
55718;SDS011;41623;46.104;19.656;2023-02-28T08:50:06;8.02;;;3.67;;
55718;SDS011;41623;46.104;19.656;2023-02-28T08:52:33;8.38;;;4.25;;
55718;SDS011;41623;46.104;19.656;2023-02-28T08:54:59;8.30;;;3.42;;
55718;SDS011;41623;46.104;19.656;2023-02-28T08:57:25;7.45;;;3.05;;
55718;SDS011;41623;46.104;19.656;2023-02-28T08:59:52;7.50;;;2.30;;
55718;SDS011;41623;46.104;19.656;2023-02-28T09:02:18;4.47;;;3.15;;
55718;SDS011;41623;46.104;19.656;2023-02-28T09:04:44;6.35;;;3.15;;
55718;SDS011;41623;46.104;19.656;2023-02-28T09:07:11;7.45;;;3.17;;
55718;SDS011;41623;46.104;19.656;2023-02-28T09:09:37;5.22;;;3.15;;
55718;SDS011;41623;46.104;19.656;2023-02-28T09:12:22;5.88;;;3.25;;
55718;SDS011;41623;46.104;19.656;2023-02-28T09:14:48;8.27;;;3.70;;
55718;SDS011;41623;46.104;19.656;2023-02-28T09:17:14;11.80;;;4.75;;
55718;SDS011;41623;46.104;19.656;2023-02-28T09:19:41;11.52;;;3.53;;
55718;SDS011;41623;46.104;19.656;2023-02-28T09:22:07;7.80;;;3.05;;
55718;SDS011;41623;46.104;19.656;2023-02-28T09:24:34;5.47;;;3.05;;
55718;SDS011;41623;46.104;19.656;2023-02-28T09:27:01;8.05;;;3.70;;
55718;SDS011;41623;46.104;19.656;2023-02-28T09:29:27;3.33;;;2.85;;
55718;SDS011;41623;46.104;19.656;2023-02-28T09:31:53;7.75;;;3.40;;
55718;SDS011;41623;46.104;19.656;2023-02-28T09:34:19;11.60;;;6.07;;
55718;SDS011;41623;46.104;19.656;2023-02-28T09:36:45;11.88;;;6.35;;
55718;SDS011;41623;46.104;19.656;2023-02-28T09:39:11;7.13;;;5.35;;
55718;SDS011;41623;46.104;19.656;2023-02-28T09:41:46;14.68;;;9.73;;
55718;SDS011;41623;46.104;19.656;2023-02-28T09:44:26;8.20;;;4.07;;
55718;SDS011;41623;46.104;19.656;2023-02-28T09:46:59;4.90;;;2.85;;
55718;SDS011;41623;46.104;19.656;2023-02-28T09:49:42;13.73;;;3.83;;
55718;SDS011;41623;46.104;19.656;2023-02-28T09:52:16;3.97;;;2.67;;
55718;SDS011;41623;46.104;19.656;2023-02-28T09:54:44;8.05;;;3.55;;
55718;SDS011;41623;46.104;19.656;2023-02-28T09:59:54;6.63;;;3.10;;
55718;SDS011;41623;46.104;19.656;2023-02-28T10:03:10;6.50;;;3.28;;
55718;SDS011;41623;46.104;19.656;2023-02-28T10:05:11;4.05;;;2.47;;
55718;SDS011;41623;46.104;19.656;2023-02-28T10:07:42;2.60;;;2.33;;
55718;SDS011;41623;46.104;19.656;2023-02-28T10:10:23;5.70;;;2.63;;
55718;SDS011;41623;46.104;19.656;2023-02-28T10:12:54;4.22;;;2.85;;
55718;SDS011;41623;46.104;19.656;2023-02-28T10:15:22;6.70;;;2.63;;
55718;SDS011;41623;46.104;19.656;2023-02-28T10:17:51;2.30;;;2.10;;
55718;SDS011;41623;46.104;19.656;2023-02-28T10:20:20;8.02;;;3.70;;
55718;SDS011;41623;46.104;19.656;2023-02-28T10:22:57;3.20;;;2.17;;
55718;SDS011;41623;46.104;19.656;2023-02-28T10:25:26;6.30;;;3.08;;
55718;SDS011;41623;46.104;19.656;2023-02-28T10:28:05;14.02;;;5.50;;
55718;SDS011;41623;46.104;19.656;2023-02-28T10:30:34;2.90;;;2.28;;
55718;SDS011;41623;46.104;19.656;2023-02-28T10:33:00;10.57;;;3.22;;
55718;SDS011;41623;46.104;19.656;2023-02-28T10:35:26;6.45;;;3.13;;
55718;SDS011;41623;46.104;19.656;2023-02-28T10:37:54;8.88;;;3.78;;
55718;SDS011;41623;46.104;19.656;2023-02-28T10:45:22;9.40;;;4.43;;
55718;SDS011;41623;46.104;19.656;2023-02-28T10:53:14;10.90;;;4.32;;
55718;SDS011;41623;46.104;19.656;2023-02-28T10:55:42;4.00;;;2.92;;
55718;SDS011;41623;46.104;19.656;2023-02-28T10:58:20;5.07;;;2.80;;
55718;SDS011;41623;46.104;19.656;2023-02-28T11:00:47;10.63;;;3.40;;
55718;SDS011;41623;46.104;19.656;2023-02-28T11:03:23;6.85;;;3.75;;
55718;SDS011;41623;46.104;19.656;2023-02-28T11:05:49;6.63;;;3.47;;
55718;SDS011;41623;46.104;19.656;2023-02-28T11:08:16;3.80;;;2.17;;
55718;SDS011;41623;46.104;19.656;2023-02-28T11:10:48;6.15;;;3.92;;
55718;SDS011;41623;46.104;19.656;2023-02-28T11:13:20;5.25;;;3.13;;
55718;SDS011;41623;46.104;19.656;2023-02-28T11:15:51;5.63;;;2.95;;
55718;SDS011;41623;46.104;19.656;2023-02-28T11:18:36;6.00;;;3.67;;
55718;SDS011;41623;46.104;19.656;2023-02-28T11:21:04;5.75;;;3.47;;
55718;SDS011;41623;46.104;19.656;2023-02-28T11:23:30;7.78;;;2.90;;
55718;SDS011;41623;46.104;19.656;2023-02-28T11:25:59;4.57;;;2.22;;
55718;SDS011;41623;46.104;19.656;2023-02-28T11:36:25;3.85;;;2.45;;
55718;SDS011;41623;46.104;19.656;2023-02-28T11:38:52;12.77;;;3.55;;
55718;SDS011;41623;46.104;19.656;2023-02-28T11:41:35;4.82;;;2.72;;
55718;SDS011;41623;46.104;19.656;2023-02-28T11:44:25;9.32;;;3.20;;
55718;SDS011;41623;46.104;19.656;2023-02-28T11:46:56;5.68;;;2.25;;
55718;SDS011;41623;46.104;19.656;2023-02-28T11:55:09;9.55;;;3.38;;
55718;SDS011;41623;46.104;19.656;2023-02-28T12:02:55;8.40;;;3.10;;
55718;SDS011;41623;46.104;19.656;2023-02-28T12:05:29;7.03;;;3.28;;
55718;SDS011;41623;46.104;19.656;2023-02-28T12:10:29;6.75;;;3.50;;
55718;SDS011;41623;46.104;19.656;2023-02-28T12:13:06;6.75;;;3.47;;
55718;SDS011;41623;46.104;19.656;2023-02-28T12:26:11;5.30;;;3.70;;
55718;SDS011;41623;46.104;19.656;2023-02-28T12:28:53;2.95;;;2.30;;
55718;SDS011;41623;46.104;19.656;2023-02-28T12:33:53;5.00;;;3.65;;
55718;SDS011;41623;46.104;19.656;2023-02-28T12:36:21;7.85;;;3.40;;
55718;SDS011;41623;46.104;19.656;2023-02-28T12:38:50;5.85;;;3.55;;
55718;SDS011;41623;46.104;19.656;2023-02-28T12:43:51;6.30;;;3.17;;
55718;SDS011;41623;46.104;19.656;2023-02-28T12:46:22;8.18;;;4.05;;
55718;SDS011;41623;46.104;19.656;2023-02-28T12:48:53;7.28;;;3.55;;
55718;SDS011;41623;46.104;19.656;2023-02-28T12:51:21;6.13;;;3.30;;
55718;SDS011;41623;46.104;19.656;2023-02-28T12:53:50;3.88;;;2.92;;
55718;SDS011;41623;46.104;19.656;2023-02-28T12:58:47;4.10;;;2.75;;
55718;SDS011;41623;46.104;19.656;2023-02-28T13:11:29;4.88;;;3.35;;
55718;SDS011;41623;46.104;19.656;2023-02-28T13:13:57;4.50;;;3.25;;
55718;SDS011;41623;46.104;19.656;2023-02-28T13:16:23;5.88;;;3.15;;
55718;SDS011;41623;46.104;19.656;2023-02-28T13:18:49;8.27;;;3.15;;
55718;SDS011;41623;46.104;19.656;2023-02-28T13:21:26;4.07;;;2.05;;
55718;SDS011;41623;46.104;19.656;2023-02-28T13:34:26;9.32;;;4.65;;
55718;SDS011;41623;46.104;19.656;2023-02-28T13:36:53;4.18;;;2.85;;
55718;SDS011;41623;46.104;19.656;2023-02-28T13:47:31;6.38;;;3.30;;
55718;SDS011;41623;46.104;19.656;2023-02-28T13:53:27;3.55;;;2.38;;
55718;SDS011;41623;46.104;19.656;2023-02-28T13:58:04;4.55;;;3.22;;
55718;SDS011;41623;46.104;19.656;2023-02-28T14:00:42;7.20;;;4.18;;
55718;SDS011;41623;46.104;19.656;2023-02-28T14:05:41;11.27;;;3.75;;
55718;SDS011;41623;46.104;19.656;2023-02-28T14:08:11;6.50;;;3.97;;
55718;SDS011;41623;46.104;19.656;2023-02-28T14:10:48;6.28;;;3.40;;
55718;SDS011;41623;46.104;19.656;2023-02-28T14:15:43;7.38;;;4.10;;
55718;SDS011;41623;46.104;19.656;2023-02-28T14:20:42;6.40;;;3.45;;
55718;SDS011;41623;46.104;19.656;2023-02-28T14:23:12;5.13;;;3.05;;
55718;SDS011;41623;46.104;19.656;2023-02-28T14:30:56;6.22;;;3.33;;
55718;SDS011;41623;46.104;19.656;2023-02-28T14:38:42;6.45;;;3.25;;
55718;SDS011;41623;46.104;19.656;2023-02-28T14:41:42;6.50;;;3.60;;
55718;SDS011;41623;46.104;19.656;2023-02-28T14:44:03;5.53;;;3.55;;
55718;SDS011;41623;46.104;19.656;2023-02-28T14:46:39;13.25;;;4.00;;
55718;SDS011;41623;46.104;19.656;2023-02-28T14:49:05;8.32;;;3.78;;
55718;SDS011;41623;46.104;19.656;2023-02-28T14:51:35;10.40;;;5.15;;
55718;SDS011;41623;46.104;19.656;2023-02-28T14:54:01;8.20;;;4.40;;
55718;SDS011;41623;46.104;19.656;2023-02-28T14:56:35;10.15;;;4.22;;
55718;SDS011;41623;46.104;19.656;2023-02-28T14:59:02;7.53;;;4.63;;
55718;SDS011;41623;46.104;19.656;2023-02-28T15:01:28;7.93;;;4.60;;
55718;SDS011;41623;46.104;19.656;2023-02-28T15:04:00;4.60;;;3.28;;
55718;SDS011;41623;46.104;19.656;2023-02-28T15:06:27;9.38;;;4.15;;
55718;SDS011;41623;46.104;19.656;2023-02-28T15:11:53;6.53;;;4.43;;
55718;SDS011;41623;46.104;19.656;2023-02-28T15:14:20;10.45;;;4.28;;
55718;SDS011;41623;46.104;19.656;2023-02-28T15:16:55;4.75;;;2.63;;
55718;SDS011;41623;46.104;19.656;2023-02-28T15:21:53;11.77;;;5.00;;
55718;SDS011;41623;46.104;19.656;2023-02-28T15:24:43;4.38;;;3.60;;
55718;SDS011;41623;46.104;19.656;2023-02-28T15:27:23;4.90;;;2.85;;
55718;SDS011;41623;46.104;19.656;2023-02-28T15:29:53;15.10;;;4.63;;
55718;SDS011;41623;46.104;19.656;2023-02-28T15:32:30;8.02;;;3.90;;
55718;SDS011;41623;46.104;19.656;2023-02-28T15:34:57;14.35;;;4.90;;
55718;SDS011;41623;46.104;19.656;2023-02-28T15:37:33;12.80;;;5.22;;
55718;SDS011;41623;46.104;19.656;2023-02-28T15:42:38;12.90;;;4.90;;
55718;SDS011;41623;46.104;19.656;2023-02-28T15:45:04;8.10;;;4.50;;
55718;SDS011;41623;46.104;19.656;2023-02-28T15:47:30;13.35;;;5.40;;
55718;SDS011;41623;46.104;19.656;2023-02-28T15:50:03;7.00;;;5.18;;
55718;SDS011;41623;46.104;19.656;2023-02-28T15:55:10;12.35;;;7.05;;
55718;SDS011;41623;46.104;19.656;2023-02-28T15:57:38;7.38;;;3.50;;
55718;SDS011;41623;46.104;19.656;2023-02-28T16:00:06;3.67;;;2.55;;
55718;SDS011;41623;46.104;19.656;2023-02-28T16:02:33;5.15;;;2.55;;
55718;SDS011;41623;46.104;19.656;2023-02-28T16:07:28;7.03;;;3.47;;
55718;SDS011;41623;46.104;19.656;2023-02-28T16:09:54;4.57;;;3.25;;
55718;SDS011;41623;46.104;19.656;2023-02-28T16:12:21;4.18;;;2.45;;
55718;SDS011;41623;46.104;19.656;2023-02-28T16:14:49;8.82;;;3.47;;
55718;SDS011;41623;46.104;19.656;2023-02-28T16:17:20;10.73;;;4.85;;
55718;SDS011;41623;46.104;19.656;2023-02-28T16:19:47;9.18;;;4.72;;
55718;SDS011;41623;46.104;19.656;2023-02-28T16:22:13;5.68;;;3.22;;
55718;SDS011;41623;46.104;19.656;2023-02-28T16:24:39;3.70;;;2.50;;
55718;SDS011;41623;46.104;19.656;2023-02-28T16:27:05;7.97;;;3.17;;
55718;SDS011;41623;46.104;19.656;2023-02-28T16:29:34;6.05;;;2.95;;
55718;SDS011;41623;46.104;19.656;2023-02-28T16:32:03;13.02;;;4.72;;
55718;SDS011;41623;46.104;19.656;2023-02-28T16:34:30;6.38;;;4.30;;
55718;SDS011;41623;46.104;19.656;2023-02-28T16:36:56;8.15;;;4.32;;
55718;SDS011;41623;46.104;19.656;2023-02-28T16:39:22;4.50;;;3.53;;
55718;SDS011;41623;46.104;19.656;2023-02-28T16:41:48;9.38;;;4.65;;
55718;SDS011;41623;46.104;19.656;2023-02-28T16:44:25;9.82;;;4.55;;
55718;SDS011;41623;46.104;19.656;2023-02-28T16:46:52;14.93;;;4.25;;
55718;SDS011;41623;46.104;19.656;2023-02-28T16:49:18;7.80;;;4.35;;
55718;SDS011;41623;46.104;19.656;2023-02-28T16:51:44;6.95;;;4.03;;
55718;SDS011;41623;46.104;19.656;2023-02-28T16:54:10;7.95;;;4.55;;
55718;SDS011;41623;46.104;19.656;2023-02-28T16:56:36;8.55;;;4.32;;
55718;SDS011;41623;46.104;19.656;2023-02-28T16:59:04;6.82;;;3.88;;
55718;SDS011;41623;46.104;19.656;2023-02-28T17:01:30;9.10;;;5.00;;
55718;SDS011;41623;46.104;19.656;2023-02-28T17:03:56;9.23;;;4.88;;
55718;SDS011;41623;46.104;19.656;2023-02-28T17:06:24;10.18;;;4.93;;
55718;SDS011;41623;46.104;19.656;2023-02-28T17:08:51;5.35;;;3.85;;
55718;SDS011;41623;46.104;19.656;2023-02-28T17:11:17;11.35;;;4.60;;
55718;SDS011;41623;46.104;19.656;2023-02-28T17:13:44;14.93;;;5.65;;